Aeroporto :
LOGIN :

Iscrizione | Disclaimer

   EN    FR    IT 

 










Sommario :    VFR   VFR Marginale   IFR   IFR Intensivo   IFR Molto Intensivo
Visibilità : 
Base nubi : 
>= 8 km
>= 3000ft
5 / 8 km
1000 / 3000 ft
1500m / 5 km
500 / 1000 ft
800 / 1500m
200 / 500 ft
< 800m
< 200 ft
Simboli :   Temporali  Nebbia  Neve Forte  Precipitazioni Forti  Vento > 20 kt
SIGMETs :   Varie  Temporali  Ghiacco  Turbolenza  Onda orograficha  Ceneri Vulcaniche






- Altitudine del aeroporto : 392 ft
- Codice IATA : CDG


LFPG - Paris-Aeroport Charles De Gaulle

ULTIMO METAR :
  • 192000Z 14008KT CAVOK 30/15 Q1014 NOSIG

METARs OBSOLETI :
  • 191930Z 13008KT CAVOK 30/15 Q1014 NOSIG
  • 191900Z 12009KT CAVOK 31/15 Q1014 NOSIG
  • 191830Z 13009KT CAVOK 31/14 Q1014 NOSIG
  • 191800Z 14010KT CAVOK 31/14 Q1014 NOSIG
  • 191730Z 14007KT 110V170 CAVOK 32/14 Q1014 NOSIG
  • 191700Z 13007KT 100V170 CAVOK 32/13 Q1014 NOSIG
  • 191630Z 13007KT 100V160 CAVOK 32/13 Q1015 NOSIG
  • 191600Z 13005KT 090V170 CAVOK 32/13 Q1015 NOSIG
  • 191530Z 25005KT 210V300 CAVOK 33/13 Q1015 NOSIG

TAF TAF LFPG
Valido dal 19 a 18 ore il 21 a 00 ore UTC


191700Z 1918/2024 12005KT CAVOK TX33/2014Z TN20/2005Z
PROB30
TEMPO 2015/2016 SCT080TCU
PROB40
TEMPO 2018/2024 4000 -SHRA SCT080TCU
PROB30
TEMPO 2018/2024 2500 TSRA SCT080CB
ATIS : +33 1 48 62 10 92



MetMap, La meteo Aeronautica in un colpo d'occhio ! - Copyright ORBIFLY Dicembre 2007 - Disclaimer

ORBIFLY MET'MAP TEAM :

Programmazione e sviluppo : Alexandra Zaïnal
Concezione : Baudouin d'Aumeries
Supporto tecnico e logistico : Manuel Goepfert
Aiuto : Marc-Olivier Méhu
Aiuto per la traduzione : Arnaldo La Scala




FONTI E CREDITI :

   NOAA